Share

Edgerton, WY (82635)

Natrona County International (KCPR) Elev 5289 ft | 42.90 °N, 106.47 °W | Change Station

Current weather conditions updated 9 minutes ago

Mostly Cloudy
Mostly Cloudy
33 °F
Feels Like 26 °F
N
9
Wind Variable Wind from ENE
Sunrise 6:20 AM
Sunset 7:49 PM
Moon Waning Gibbous

Tomorrow is forecast to be Much Warmer than today.

Pressure 30.10 in
Visibility 10.0 miles
Clouds Few 800 ft
Mostly Cloudy 9000 ft
Windchill 26 °F
Dew Point 30 °F
Humidity 89%
Rainfall 0.04 in
Snow Depth Not available.
UV 0 out of 16
Pollen 8.00 out of 12
Air Quality Not available.
Flu Activity Sporadic
METAR KCPR 170453Z AUTO 07008KT 10SM FEW008 BKN090 01/M01 A3006 RMK AO2 SLP191 T00061011

More Conditions Fewer Conditions

Pressure 30.10 in
Visibility 10.0 miles
Clouds Few 800 ft
Mostly Cloudy 9000 ft
Windchill 26 °F
Dew Point 30 °F
Humidity 89%
Rainfall 0.04 in
Snow Depth Not available.
UV 0 out of 16
Pollen 8.00 out of 12
Air Quality Not available.
Flu Activity Sporadic
METAR KCPR 170453Z AUTO 07008KT 10SM FEW008 BKN090 01/M01 A3006 RMK AO2 SLP191 T00061011

More Conditions Fewer Conditions

10-Day Forecast

Almanac

Astronomy

Apr. 16, 2014 Rise Set
Actual Time 6:20 AM MDT 7:49 PM MDT
Civil Twilight 5:51 AM MDT 8:19 PM MDT
Nautical Twilight 5:15 AM MDT 8:55 PM MDT
Astronomical Twilight 4:36 AM MDT 9:34 PM MDT
Moon 9:38 PM MDT (4/16) 7:08 AM MDT (4/16)
Length of Visible Light 14h 28m
Length of Day
13h 28m
Tomorrow will be 2m 49s longer.
Waning Gibbous, 96% of the Moon is Illuminated
Apr 17
Waning Gibbous
Apr 22
Last Quarter
Apr 29
New
May 6
First Quarter
May 14
Full

Yesterday's Extremes

State Highs State Lows

Community

  • symphony in blue....
    symphony in blue....
  • Dawn Surprise
    Dawn Surprise
  • Yucca delight
    Yucca delight
  • Sunset inside of the Ocean
    Sunset inside of the Ocean
  • Lunar eclipse 15 April 2014
    Lunar eclipse 15 April 2014

WunderPhotos

Upload Photos

1,701,858 photos uploaded!

WunderBlogs® & News

Nearby

Snow Depth

Station Depth Elevation
Casper Mountain 55 in 7850 ft
Middle Powder 60 in 7760 ft
Grave Springs 48 in 8550 ft
Bear Trap Meadow 36 in 8200 ft
Reno Hill 61 in 8500 ft

Coastal Water Temperatures

Place Temperature
No Stations Reporting

Earthquake Activity

City Distance Mag. Time & Date
No recent earthquake activity has been reported nearby.
Minimum magnitude displayed is 2.5.

Nearby Weather Stations

There are no personal weather stations in this area.

What do you think?

We're not finished. Please let us know what you like, what you don't like, and what you are still missing.